Time;durP1;ratioP1;P1;durP2;ratioP2;P2;SDS_P1;SDS_P2;PMS_P1;PMS_P2;Temp;Humidity;BMP_temperature;BMP_pressure;BME280_temperature;BME280_humidity;BME280_pressure;Samples;Min_cycle;Max_cycle;Signal;HPM_P1;HPM_P2
2021/06/12 00:00:32;;;;;;;12.07;7.90;;;16.90;99.90;;;;;;5030381;28;20023;-75
2021/06/12 00:03:01;;;;;;;9.88;8.43;;;16.90;99.90;;;;;;5031905;28;20022;-75
2021/06/12 00:05:27;;;;;;;9.85;8.07;;;16.90;99.90;;;;;;5013163;28;20597;-75
2021/06/12 00:07:53;;;;;;;12.00;8.35;;;16.90;99.90;;;;;;5011905;28;20033;-75
2021/06/12 00:10:34;;;;;;;9.23;8.27;;;16.90;99.90;;;;;;5029345;28;20098;-75
2021/06/12 00:12:59;;;;;;;9.88;7.82;;;16.90;99.90;;;;;;5029676;28;20022;-75
2021/06/12 00:15:26;;;;;;;9.65;8.38;;;16.90;99.90;;;;;;5011542;28;20045;-75
2021/06/12 00:17:52;;;;;;;10.25;8.48;;;16.90;99.90;;;;;;5029530;28;20030;-75
2021/06/12 00:20:23;;;;;;;9.27;8.30;;;17.00;99.90;;;;;;5029355;28;20075;-75
2021/06/12 00:22:49;;;;;;;11.00;7.72;;;16.90;99.90;;;;;;5029297;28;20486;-75
2021/06/12 00:25:17;;;;;;;9.48;7.50;;;16.90;99.90;;;;;;5011509;28;20033;-75
2021/06/12 00:27:43;;;;;;;9.48;7.47;;;16.90;99.90;;;;;;5029280;28;20112;-75
2021/06/12 00:30:11;;;;;;;8.95;7.32;;;16.90;99.90;;;;;;5011754;28;20537;-75
2021/06/12 00:32:38;;;;;;;9.35;8.05;;;16.90;99.90;;;;;;5011819;28;20327;-75
2021/06/12 00:35:06;;;;;;;9.25;8.00;;;16.90;99.90;;;;;;5011624;28;20560;-75
2021/06/12 00:37:31;;;;;;;9.63;8.63;;;16.80;99.90;;;;;;5029216;28;20048;-75
2021/06/12 00:39:57;;;;;;;9.40;7.80;;;16.80;99.90;;;;;;5029192;28;20021;-75
2021/06/12 00:42:22;;;;;;;12.65;9.02;;;16.80;99.90;;;;;;5029277;28;20030;-75
2021/06/12 00:44:48;;;;;;;11.48;8.30;;;16.80;99.90;;;;;;5029221;28;20033;-75
2021/06/12 00:47:14;;;;;;;11.00;9.48;;;16.80;99.90;;;;;;5032071;28;20017;-75
2021/06/12 00:49:39;;;;;;;8.85;7.80;;;16.80;99.90;;;;;;5033135;28;20029;-75
2021/06/12 00:52:05;;;;;;;9.88;8.15;;;16.80;99.90;;;;;;5033032;28;20029;-75
2021/06/12 00:54:31;;;;;;;10.75;8.80;;;16.90;99.90;;;;;;5033308;28;20035;-74
2021/06/12 00:56:57;;;;;;;10.43;9.32;;;16.90;99.90;;;;;;5033273;28;20021;-75
2021/06/12 00:59:23;;;;;;;9.90;8.88;;;16.90;99.90;;;;;;5015309;28;20031;-75
2021/06/12 01:01:50;;;;;;;16.17;9.13;;;16.90;99.90;;;;;;5032761;28;20029;-74
2021/06/12 01:04:16;;;;;;;12.43;9.77;;;16.90;99.90;;;;;;5015001;28;20040;-75
2021/06/12 01:06:42;;;;;;;11.75;9.43;;;16.90;99.90;;;;;;5032697;28;20035;-75
2021/06/12 01:09:08;;;;;;;10.63;9.52;;;16.90;99.90;;;;;;5014987;28;20112;-74
2021/06/12 01:11:45;;;;;;;11.30;10.05;;;17.00;99.90;;;;;;5032593;28;20393;-75
2021/06/12 01:14:21;;;;;;;11.75;9.75;;;16.90;99.90;;;;;;5033053;28;20457;-75
2021/06/12 01:16:59;;;;;;;11.25;9.32;;;17.00;99.90;;;;;;5057417;22;20053;-74
2021/06/12 01:19:43;;;;;;;11.70;9.20;;;16.90;99.90;;;;;;5032466;28;20049;-74
2021/06/12 01:22:16;;;;;;;13.57;10.07;;;16.90;99.90;;;;;;5014647;28;20474;-74
2021/06/12 01:25:04;;;;;;;11.52;10.07;;;16.90;99.90;;;;;;5014708;28;20096;-74
2021/06/12 01:27:49;;;;;;;10.60;9.50;;;16.90;99.90;;;;;;5012517;28;20114;-74
2021/06/12 01:30:17;;;;;;;10.00;9.00;;;16.90;99.90;;;;;;4994816;28;20032;-74
2021/06/12 01:32:49;;;;;;;10.95;9.85;;;17.00;99.90;;;;;;5012440;28;20022;-74
2021/06/12 01:35:25;;;;;;;12.50;11.20;;;17.00;99.90;;;;;;4994777;28;20568;-74
2021/06/12 01:37:53;;;;;;;13.73;10.98;;;17.00;99.90;;;;;;4994769;28;20057;-74
2021/06/12 01:40:22;;;;;;;12.95;10.82;;;16.90;99.90;;;;;;5012395;28;20030;-74
2021/06/12 01:42:49;;;;;;;10.90;9.73;;;16.90;99.90;;;;;;5012228;28;20101;-74
2021/06/12 01:45:16;;;;;;;11.80;10.60;;;17.00;99.90;;;;;;5012340;28;20022;-72
2021/06/12 01:47:42;;;;;;;12.38;10.52;;;17.00;99.90;;;;;;4994585;28;20053;-72
2021/06/12 01:50:13;;;;;;;14.73;10.65;;;17.00;99.90;;;;;;4994423;28;20022;-72
2021/06/12 01:52:41;;;;;;;10.57;9.48;;;16.90;99.90;;;;;;5012346;28;20018;-72
2021/06/12 01:55:09;;;;;;;10.60;9.25;;;16.90;99.90;;;;;;4994314;28;20368;-73
2021/06/12 01:57:36;;;;;;;11.18;9.70;;;16.90;99.90;;;;;;4993628;28;20502;-72
2021/06/12 02:00:04;;;;;;;12.82;11.32;;;16.90;99.90;;;;;;4994277;28;20068;-72
2021/06/12 02:02:30;;;;;;;10.68;9.57;;;16.90;99.90;;;;;;5010634;28;20053;-73
2021/06/12 02:04:57;;;;;;;10.55;9.40;;;16.90;99.90;;;;;;5011840;28;20022;-73
2021/06/12 02:07:23;;;;;;;13.90;11.38;;;16.90;99.90;;;;;;5012109;28;20355;-73
2021/06/12 02:09:51;;;;;;;11.55;9.82;;;16.90;99.90;;;;;;5011772;28;20529;-73
2021/06/12 02:12:18;;;;;;;10.73;9.63;;;16.90;99.90;;;;;;5011647;28;20502;-72
2021/06/12 02:14:44;;;;;;;11.60;9.93;;;17.00;99.90;;;;;;4994138;28;20026;-73
2021/06/12 02:17:11;;;;;;;13.98;11.38;;;16.90;99.90;;;;;;5011518;28;20041;-73
2021/06/12 02:19:39;;;;;;;11.80;10.00;;;16.90;99.90;;;;;;5011604;28;20018;-73
2021/06/12 02:22:06;;;;;;;11.48;9.85;;;17.00;99.90;;;;;;5011496;28;20026;-73
2021/06/12 02:24:32;;;;;;;12.82;9.68;;;17.00;99.90;;;;;;5011492;28;20457;-73
2021/06/12 02:26:58;;;;;;;11.85;10.60;;;17.00;99.90;;;;;;5011508;28;20109;-73
2021/06/12 02:29:25;;;;;;;11.25;10.15;;;17.00;99.90;;;;;;4994052;28;20083;-73
2021/06/12 02:32:04;;;;;;;12.18;10.10;;;17.00;99.90;;;;;;5011238;28;20027;-72
2021/06/12 02:34:33;;;;;;;10.73;9.18;;;17.00;99.90;;;;;;5011310;28;20022;-73
2021/06/12 02:37:00;;;;;;;10.60;9.25;;;17.00;99.90;;;;;;5011251;28;20026;-73
2021/06/12 02:39:25;;;;;;;11.50;9.75;;;17.00;99.90;;;;;;5011458;28;20026;-73
2021/06/12 02:41:51;;;;;;;10.18;8.98;;;17.00;99.90;;;;;;5011406;28;20022;-72
2021/06/12 02:44:17;;;;;;;10.30;8.82;;;17.00;99.90;;;;;;4993630;28;20036;-73
2021/06/12 02:46:44;;;;;;;9.68;8.75;;;16.90;99.90;;;;;;5011011;28;20030;-73
2021/06/12 02:49:13;;;;;;;10.73;9.60;;;16.90;99.90;;;;;;4993455;28;20037;-72
2021/06/12 02:51:44;;;;;;;9.65;8.65;;;16.80;99.90;;;;;;5010896;28;20049;-73
2021/06/12 02:54:10;;;;;;;11.32;9.07;;;16.80;99.90;;;;;;5011006;28;20025;-73
2021/06/12 02:56:36;;;;;;;12.80;9.52;;;16.70;99.90;;;;;;4993461;28;20063;-72
2021/06/12 02:59:06;;;;;;;12.15;9.50;;;16.70;99.90;;;;;;4993353;28;20026;-72
2021/06/12 03:01:33;;;;;;;11.15;8.93;;;16.60;99.90;;;;;;5011089;28;20026;-72
2021/06/12 03:03:59;;;;;;;10.18;9.00;;;16.60;99.90;;;;;;5010785;28;20033;-72
2021/06/12 03:06:26;;;;;;;10.38;9.05;;;16.50;99.90;;;;;;5010659;28;20107;-73
2021/06/12 03:08:52;;;;;;;10.70;9.57;;;16.40;99.90;;;;;;5010569;28;20062;-73
2021/06/12 03:11:20;;;;;;;11.90;9.88;;;16.30;99.90;;;;;;5009897;28;20044;-72
2021/06/12 03:13:47;;;;;;;11.38;9.20;;;16.30;99.90;;;;;;4993285;28;20390;-72
2021/06/12 03:16:16;;;;;;;12.57;10.50;;;16.30;99.90;;;;;;4992774;28;20065;-73
2021/06/12 03:18:46;;;;;;;11.18;9.35;;;16.30;99.90;;;;;;4992892;28;20032;-72
2021/06/12 03:21:12;;;;;;;11.10;9.68;;;16.20;99.90;;;;;;5010923;28;20064;-73
2021/06/12 03:23:39;;;;;;;11.60;9.43;;;16.20;99.90;;;;;;4992972;28;20125;-73
2021/06/12 03:26:07;;;;;;;11.45;9.95;;;16.20;99.90;;;;;;5010444;28;20445;-73
2021/06/12 03:28:33;;;;;;;11.38;9.55;;;16.20;99.90;;;;;;5010871;28;20026;-73
2021/06/12 03:31:01;;;;;;;11.93;9.52;;;16.20;99.90;;;;;;4992560;28;20030;-73
2021/06/12 03:33:28;;;;;;;15.35;10.23;;;16.20;99.90;;;;;;5010157;28;20033;-72
2021/06/12 03:35:55;;;;;;;14.27;10.77;;;16.20;99.90;;;;;;4992536;28;20475;-73
2021/06/12 03:38:21;;;;;;;11.23;8.82;;;16.20;99.90;;;;;;5010187;28;20030;-73
2021/06/12 03:40:47;;;;;;;12.30;10.13;;;16.20;99.90;;;;;;5010134;28;20033;-72
2021/06/12 03:43:14;;;;;;;12.02;10.70;;;16.30;99.90;;;;;;5010054;28;20030;-73
2021/06/12 03:45:42;;;;;;;14.15;11.40;;;16.30;99.90;;;;;;4992404;28;20030;-73
2021/06/12 03:48:09;;;;;;;13.52;11.93;;;16.30;99.90;;;;;;4992333;28;20488;-73
2021/06/12 03:50:36;;;;;;;14.18;11.40;;;16.30;99.90;;;;;;5009883;28;20030;-73
2021/06/12 03:53:05;;;;;;;13.00;11.60;;;16.30;99.90;;;;;;5009931;28;20030;-73
2021/06/12 03:55:31;;;;;;;13.93;11.10;;;16.30;99.90;;;;;;4992209;28;20097;-73
2021/06/12 03:57:57;;;;;;;13.13;10.15;;;16.30;99.90;;;;;;5010116;28;20026;-74
2021/06/12 04:00:23;;;;;;;10.38;9.30;;;16.30;99.90;;;;;;5009793;28;20037;-73
2021/06/12 04:02:49;;;;;;;11.85;10.02;;;16.30;99.90;;;;;;5009827;28;20030;-73
2021/06/12 04:05:15;;;;;;;10.52;9.18;;;16.30;99.90;;;;;;5009721;28;20443;-73
2021/06/12 04:07:40;;;;;;;11.50;9.55;;;16.30;99.90;;;;;;5010049;28;20093;-73
2021/06/12 04:10:08;;;;;;;10.40;9.18;;;16.30;99.90;;;;;;5009694;28;20083;-73
2021/06/12 04:12:33;;;;;;;10.80;9.27;;;16.40;99.90;;;;;;4992091;28;20018;-73
2021/06/12 04:14:59;;;;;;;9.75;8.65;;;16.40;99.90;;;;;;4991810;28;20026;-73
2021/06/12 04:17:25;;;;;;;11.68;8.57;;;16.50;99.90;;;;;;5009631;28;20100;-73
2021/06/12 04:19:50;;;;;;;10.00;7.80;;;16.50;99.90;;;;;;5009930;28;20018;-73
2021/06/12 04:22:16;;;;;;;8.88;8.00;;;16.60;99.90;;;;;;5009294;28;20026;-73
2021/06/12 04:24:41;;;;;;;9.57;8.57;;;16.70;99.90;;;;;;5009545;28;20167;-73
2021/06/12 04:27:07;;;;;;;9.80;8.07;;;16.70;99.90;;;;;;5009526;28;20538;-73
2021/06/12 04:29:32;;;;;;;8.98;8.07;;;16.80;99.90;;;;;;4991947;28;20164;-73
2021/06/12 04:31:58;;;;;;;12.52;9.43;;;16.90;99.90;;;;;;4991802;28;20375;-73
2021/06/12 04:34:24;;;;;;;9.38;8.38;;;16.90;99.90;;;;;;5009751;28;20471;-73
2021/06/12 04:36:49;;;;;;;11.73;8.63;;;17.00;99.90;;;;;;5009392;28;20107;-73
2021/06/12 04:39:15;;;;;;;9.95;8.95;;;17.10;99.90;;;;;;5009502;28;20029;-73
2021/06/12 04:41:41;;;;;;;11.95;8.50;;;17.10;99.90;;;;;;5009385;28;20033;-72
2021/06/12 04:44:06;;;;;;;10.77;8.30;;;17.20;99.90;;;;;;5009393;28;20530;-72
2021/06/12 04:46:32;;;;;;;10.68;8.70;;;17.20;99.90;;;;;;5009300;28;20080;-73
2021/06/12 04:48:58;;;;;;;9.52;7.97;;;17.30;99.90;;;;;;5009579;28;20116;-73
2021/06/12 04:51:24;;;;;;;12.10;9.68;;;17.40;99.90;;;;;;5009248;28;20030;-73
2021/06/12 04:53:49;;;;;;;12.23;8.90;;;17.50;99.90;;;;;;5009278;28;20032;-73
2021/06/12 04:56:15;;;;;;;9.15;8.15;;;17.60;99.90;;;;;;4991641;28;20572;-73
2021/06/12 04:58:40;;;;;;;11.70;9.82;;;17.70;99.90;;;;;;5009563;28;20421;-73
2021/06/12 05:01:06;;;;;;;9.88;8.88;;;17.80;99.90;;;;;;5009280;28;20108;-71
2021/06/12 05:03:31;;;;;;;10.05;9.05;;;17.90;99.90;;;;;;5009549;28;20030;-73
2021/06/12 05:05:58;;;;;;;9.20;8.20;;;18.00;99.90;;;;;;5009177;28;20076;-73
2021/06/12 05:08:24;;;;;;;10.98;9.48;;;18.10;99.90;;;;;;4991623;28;20084;-73
2021/06/12 05:10:50;;;;;;;10.30;9.25;;;18.10;99.90;;;;;;4991384;28;20478;-73
2021/06/12 05:13:15;;;;;;;9.27;7.88;;;18.20;99.90;;;;;;5009448;28;20022;-73
2021/06/12 05:15:41;;;;;;;10.63;7.72;;;18.30;99.90;;;;;;5008988;28;20030;-73
2021/06/12 05:18:07;;;;;;;12.40;8.63;;;18.40;99.90;;;;;;5009158;28;20462;-73
2021/06/12 05:20:37;;;;;;;9.20;8.05;;;18.50;99.90;;;;;;5009146;28;20041;-73
2021/06/12 05:23:04;;;;;;;8.25;7.30;;;18.60;99.90;;;;;;4991524;28;20029;-73
2021/06/12 05:25:30;;;;;;;8.68;7.75;;;18.80;99.90;;;;;;5009001;28;20352;-74
2021/06/12 05:27:56;;;;;;;11.05;8.15;;;18.90;99.90;;;;;;5009000;28;20033;-73
2021/06/12 05:30:22;;;;;;;11.00;7.55;;;19.10;99.90;;;;;;5009476;28;20072;-73
2021/06/12 05:32:48;;;;;;;9.43;7.22;;;19.30;99.90;;;;;;4991871;28;20033;-73
2021/06/12 05:35:14;;;;;;;8.95;7.32;;;19.50;99.90;;;;;;5012695;28;20463;-73
2021/06/12 05:37:40;;;;;;;7.88;7.07;;;19.70;99.90;;;;;;4995455;28;20038;-73
2021/06/12 05:40:07;;;;;;;9.15;6.82;;;19.90;99.90;;;;;;5012967;28;20483;-74
2021/06/12 05:42:34;;;;;;;6.25;5.55;;;20.10;99.90;;;;;;4994801;28;20033;-73
2021/06/12 05:44:59;;;;;;;7.10;6.40;;;20.30;99.90;;;;;;5012351;28;20050;-74
2021/06/12 05:47:25;;;;;;;10.10;7.78;;;20.50;99.90;;;;;;5012493;28;20026;-74
2021/06/12 05:49:50;;;;;;;9.23;8.15;;;20.70;99.90;;;;;;5012373;28;20021;-74
2021/06/12 05:52:16;;;;;;;8.27;7.47;;;20.70;99.90;;;;;;5012746;28;20037;-73
2021/06/12 05:54:41;;;;;;;8.05;7.20;;;20.70;99.90;;;;;;5012204;28;20021;-73
2021/06/12 05:57:07;;;;;;;7.90;6.45;;;20.70;99.90;;;;;;5012155;28;20068;-74
2021/06/12 05:59:33;;;;;;;9.88;7.60;;;20.70;99.90;;;;;;4994584;28;20018;-74
2021/06/12 06:01:58;;;;;;;10.73;8.43;;;20.70;99.90;;;;;;5012021;28;20505;-73
2021/06/12 06:04:24;;;;;;;8.90;7.88;;;20.80;99.90;;;;;;5012026;28;20044;-73
2021/06/12 06:06:52;;;;;;;9.10;7.47;;;20.70;99.90;;;;;;5011934;28;20080;-73
2021/06/12 06:09:18;;;;;;;8.52;7.65;;;20.80;99.90;;;;;;5011893;28;20509;-73
2021/06/12 06:11:43;;;;;;;7.25;6.20;;;20.70;99.90;;;;;;5011797;28;20030;-73
2021/06/12 06:14:09;;;;;;;7.70;6.22;;;20.70;99.90;;;;;;4994236;28;20485;-73
2021/06/12 06:16:35;;;;;;;7.63;6.32;;;20.70;99.90;;;;;;5011595;28;20038;-73
2021/06/12 06:19:00;;;;;;;6.93;6.22;;;20.70;99.90;;;;;;4994166;28;20021;-73
2021/06/12 06:21:26;;;;;;;7.38;6.65;;;20.70;99.90;;;;;;5011655;28;20545;-73
2021/06/12 06:23:51;;;;;;;7.07;6.38;;;20.70;99.90;;;;;;5011750;28;20101;-72
2021/06/12 06:26:17;;;;;;;7.00;6.03;;;20.70;99.90;;;;;;5011639;28;20454;-73
2021/06/12 06:28:43;;;;;;;8.27;6.32;;;20.70;99.90;;;;;;4994010;28;20469;-72
2021/06/12 06:31:08;;;;;;;7.85;6.28;;;20.80;99.90;;;;;;5011519;28;20029;-73
2021/06/12 06:33:34;;;;;;;7.53;6.45;;;20.80;99.90;;;;;;5014211;28;20021;-73
2021/06/12 06:36:00;;;;;;;6.82;5.88;;;20.90;99.90;;;;;;5013845;28;20030;-73
2021/06/12 06:38:26;;;;;;;6.65;5.80;;;21.00;99.90;;;;;;5014770;28;20019;-73
2021/06/12 06:40:51;;;;;;;6.57;5.90;;;21.10;99.90;;;;;;5013337;28;20026;-74
2021/06/12 06:43:17;;;;;;;7.50;6.43;;;21.20;99.90;;;;;;4996645;28;20065;-73
2021/06/12 06:45:44;;;;;;;7.05;6.03;;;21.30;99.90;;;;;;5012659;28;20484;-73
2021/06/12 06:48:12;;;;;;;8.60;6.03;;;21.40;99.90;;;;;;4996077;28;20022;-73
2021/06/12 06:50:39;;;;;;;7.60;5.53;;;21.50;99.90;;;;;;4996732;28;20142;-73
2021/06/12 06:53:04;;;;;;;8.23;5.35;;;21.70;99.90;;;;;;5014236;28;20025;-73
2021/06/12 06:55:30;;;;;;;8.00;5.85;;;21.80;99.90;;;;;;5012516;28;20029;-73
2021/06/12 06:57:56;;;;;;;6.45;5.82;;;21.90;99.90;;;;;;4994098;28;20061;-73
2021/06/12 07:00:24;;;;;;;6.53;5.88;;;22.10;99.90;;;;;;5011694;28;20092;-73
2021/06/12 07:02:49;;;;;;;6.55;5.40;;;22.30;99.90;;;;;;4993720;28;20379;-72
2021/06/12 07:05:15;;;;;;;5.90;5.18;;;22.50;99.90;;;;;;5010909;28;20036;-73
2021/06/12 07:07:41;;;;;;;7.72;5.97;;;22.70;99.90;;;;;;5010975;28;20075;-73
2021/06/12 07:10:07;;;;;;;7.05;6.05;;;22.90;99.90;;;;;;4993393;28;20033;-74
2021/06/12 07:12:32;;;;;;;7.25;6.18;;;23.10;99.90;;;;;;4993944;28;20524;-73
2021/06/12 07:14:58;;;;;;;6.25;5.25;;;23.20;99.90;;;;;;5010680;28;20460;-73
2021/06/12 07:17:23;;;;;;;7.68;5.53;;;23.50;99.90;;;;;;5012110;28;20395;-74
2021/06/12 07:19:49;;;;;;;8.48;6.15;;;23.70;99.90;;;;;;5010675;28;20030;-74
2021/06/12 07:22:14;;;;;;;6.82;5.80;;;23.80;99.90;;;;;;5010910;28;20029;-74
2021/06/12 07:24:40;;;;;;;5.95;5.35;;;24.00;99.90;;;;;;4993029;28;20049;-74
2021/06/12 07:27:07;;;;;;;5.95;5.35;;;24.10;99.90;;;;;;5010409;28;20029;-74
2021/06/12 07:29:33;;;;;;;7.07;5.82;;;24.30;99.90;;;;;;5010473;28;20032;-74
2021/06/12 07:31:59;;;;;;;5.80;5.22;;;24.40;99.90;;;;;;4992706;28;20113;-74
2021/06/12 07:34:24;;;;;;;8.63;5.78;;;24.40;99.90;;;;;;5010384;28;20033;-74
2021/06/12 07:36:50;;;;;;;10.00;5.72;;;24.50;99.90;;;;;;4992607;28;20021;-73
2021/06/12 07:39:15;;;;;;;6.10;5.20;;;24.50;99.90;;;;;;5010310;28;20022;-74
2021/06/12 07:41:41;;;;;;;7.28;5.85;;;24.50;99.90;;;;;;5010261;28;20021;-74
2021/06/12 07:44:07;;;;;;;7.10;5.50;;;24.80;99.90;;;;;;5010234;28;20032;-74
2021/06/12 07:46:33;;;;;;;6.03;5.22;;;24.80;99.00;;;;;;5010310;28;20029;-74
2021/06/12 07:48:59;;;;;;;6.63;5.55;;;24.80;98.50;;;;;;5010062;28;20034;-74
2021/06/12 07:51:31;;;;;;;6.75;5.50;;;24.90;97.90;;;;;;4992925;28;20475;-74
2021/06/12 07:53:57;;;;;;;6.57;5.97;;;25.10;97.90;;;;;;5010008;28;20100;-74
2021/06/12 07:56:22;;;;;;;5.90;5.30;;;25.20;96.00;;;;;;4991815;28;20156;-74
2021/06/12 07:58:48;;;;;;;5.63;5.07;;;25.20;95.60;;;;;;5010243;28;20026;-74
2021/06/12 08:01:13;;;;;;;6.35;5.43;;;25.30;95.70;;;;;;4992395;28;20509;-74
2021/06/12 08:03:39;;;;;;;7.00;5.28;;;25.50;94.50;;;;;;5009948;28;20030;-74
2021/06/12 08:06:04;;;;;;;6.50;5.90;;;25.70;92.70;;;;;;4992166;28;20478;-74
2021/06/12 08:08:30;;;;;;;7.47;5.60;;;26.00;91.10;;;;;;5010108;28;20166;-74
2021/06/12 08:10:56;;;;;;;5.85;5.07;;;26.30;91.30;;;;;;5010096;28;20026;-74
2021/06/12 08:13:21;;;;;;;6.63;6.00;;;26.60;90.00;;;;;;5009759;28;20052;-75
2021/06/12 08:15:47;;;;;;;6.60;6.00;;;26.80;86.90;;;;;;5009756;28;20038;-74
2021/06/12 08:18:12;;;;;;;8.27;5.30;;;26.90;83.80;;;;;;5009669;28;20026;-74
2021/06/12 08:20:38;;;;;;;6.50;5.90;;;27.10;82.50;;;;;;5009948;28;20104;-74
2021/06/12 08:23:04;;;;;;;6.70;6.10;;;27.50;80.20;;;;;;5009711;28;20116;-73
2021/06/12 08:25:29;;;;;;;6.47;5.88;;;27.60;76.10;;;;;;5009651;28;20033;-74
2021/06/12 08:28:01;;;;;;;7.82;6.07;;;27.80;75.60;;;;;;5009988;28;20026;-74
2021/06/12 08:30:27;;;;;;;7.53;6.18;;;28.00;76.40;;;;;;5009627;28;20017;-74
2021/06/12 08:32:52;;;;;;;8.02;6.25;;;28.20;71.70;;;;;;5009415;28;20138;-74
2021/06/12 08:35:18;;;;;;;7.30;6.43;;;28.10;73.40;;;;;;5009627;28;20027;-74
2021/06/12 08:37:43;;;;;;;8.77;6.53;;;28.20;70.30;;;;;;5009320;28;20028;-73
2021/06/12 08:40:09;;;;;;;7.97;5.80;;;28.40;67.30;;;;;;4992422;28;20030;-74
2021/06/12 08:42:35;;;;;;;7.32;6.43;;;28.50;66.90;;;;;;4992210;28;20122;-73
2021/06/12 08:45:03;;;;;;;6.82;6.10;;;28.50;65.30;;;;;;4991839;28;20057;-74
2021/06/12 08:47:32;;;;;;;7.07;5.68;;;28.60;65.90;;;;;;5009299;28;20080;-73
2021/06/12 08:49:57;;;;;;;7.07;6.38;;;28.70;65.10;;;;;;5009251;28;20371;-74
2021/06/12 08:52:23;;;;;;;7.07;5.95;;;28.80;62.80;;;;;;5008027;28;20026;-73
2021/06/12 08:54:49;;;;;;;7.20;5.90;;;28.90;63.00;;;;;;5009258;28;20478;-74
2021/06/12 08:57:14;;;;;;;6.75;5.85;;;29.10;62.60;;;;;;4991577;28;20030;-74
2021/06/12 08:59:40;;;;;;;6.43;5.82;;;29.50;62.10;;;;;;5009165;28;20097;-74
2021/06/12 09:02:06;;;;;;;6.97;6.30;;;29.70;59.70;;;;;;5009196;28;20375;-74
2021/06/12 09:04:43;;;;;;;7.78;6.13;;;29.60;60.70;;;;;;4991697;28;20037;-74
2021/06/12 09:07:29;;;;;;;7.72;6.82;;;29.70;60.30;;;;;;5010277;28;20030;-75
2021/06/12 09:09:58;;;;;;;6.40;5.80;;;29.80;59.50;;;;;;5013143;28;20025;-75
2021/06/12 09:12:44;;;;;;;6.85;5.93;;;29.90;59.60;;;;;;5012949;28;20022;-75
2021/06/12 09:15:12;;;;;;;6.82;5.70;;;30.10;58.70;;;;;;5011541;28;20056;-75
2021/06/12 09:17:55;;;;;;;6.10;5.50;;;30.30;57.50;;;;;;4995346;28;20380;-74
2021/06/12 09:20:27;;;;;;;6.97;5.90;;;30.40;57.10;;;;;;4995457;28;20024;-74
2021/06/12 09:23:08;;;;;;;6.35;5.50;;;30.50;55.60;;;;;;4995359;28;20053;-74
2021/06/12 09:25:42;;;;;;;6.78;5.63;;;30.60;56.50;;;;;;5012686;28;20018;-74
2021/06/12 09:28:08;;;;;;;6.80;5.68;;;30.70;54.60;;;;;;4995313;28;20029;-75
2021/06/12 09:30:34;;;;;;;7.38;5.20;;;30.80;55.60;;;;;;4995106;28;20429;-75
2021/06/12 09:32:59;;;;;;;5.88;5.28;;;30.90;56.20;;;;;;4995017;28;20533;-75
2021/06/12 09:35:40;;;;;;;5.55;5.05;;;30.70;55.40;;;;;;5012814;28;20018;-74
2021/06/12 09:38:22;;;;;;;5.85;5.35;;;30.80;54.30;;;;;;5012465;28;20022;-74
2021/06/12 09:40:48;;;;;;;6.22;4.85;;;30.80;53.50;;;;;;5012451;28;20030;-74
2021/06/12 09:43:29;;;;;;;5.75;5.18;;;30.70;54.10;;;;;;5012641;28;20164;-75
2021/06/12 09:45:55;;;;;;;5.68;4.93;;;30.90;54.30;;;;;;4994701;28;20057;-72
2021/06/12 09:48:22;;;;;;;5.32;4.82;;;31.50;52.10;;;;;;5012346;28;20507;-74
2021/06/12 09:51:07;;;;;;;5.22;4.72;;;32.80;50.00;;;;;;5012212;28;20018;-75
2021/06/12 09:53:45;;;;;;;5.55;4.65;;;34.20;46.40;;;;;;5012228;28;20054;-75
2021/06/12 09:56:12;;;;;;;8.10;5.07;;;35.20;44.60;;;;;;4994535;28;20026;-75
2021/06/12 09:58:37;;;;;;;6.88;4.55;;;35.80;42.80;;;;;;5012054;28;20101;-75
2021/06/12 10:01:08;;;;;;;4.38;3.97;;;36.50;42.30;;;;;;5012071;28;20092;-75
2021/06/12 10:03:33;;;;;;;6.25;4.88;;;37.60;40.30;;;;;;5012026;28;20034;-75
2021/06/12 10:06:12;;;;;;;5.13;4.65;;;38.10;37.60;;;;;;5012105;28;20379;-75
2021/06/12 10:08:40;;;;;;;5.18;4.68;;;39.20;36.30;;;;;;5011907;28;20495;-74
2021/06/12 10:11:06;;;;;;;4.95;4.05;;;39.90;35.50;;;;;;5011782;28;20030;-75
2021/06/12 10:13:32;;;;;;;4.93;4.07;;;40.60;33.40;;;;;;5011751;28;20029;-74
2021/06/12 10:15:59;;;;;;;4.55;4.15;;;40.60;32.40;;;;;;4994016;28;20098;-75
2021/06/12 10:18:26;;;;;;;4.93;4.18;;;40.90;31.80;;;;;;5011113;28;20033;-75
2021/06/12 10:20:52;;;;;;;4.40;3.90;;;40.40;32.80;;;;;;5011599;28;20033;-74
2021/06/12 10:23:18;;;;;;;4.03;3.63;;;40.50;31.20;;;;;;5011566;28;20045;-74
2021/06/12 10:25:45;;;;;;;4.82;4.13;;;40.70;32.80;;;;;;5011520;28;20025;-75
2021/06/12 10:28:10;;;;;;;4.50;4.00;;;41.60;30.20;;;;;;5011527;28;20391;-75
2021/06/12 10:30:37;;;;;;;4.82;4.20;;;41.50;30.50;;;;;;5011437;28;20022;-75
2021/06/12 10:33:04;;;;;;;5.35;3.75;;;42.20;30.10;;;;;;5011500;28;20026;-75
2021/06/12 10:35:29;;;;;;;3.42;3.13;;;42.60;29.90;;;;;;5011376;28;20033;-76
2021/06/12 10:38:12;;;;;;;3.65;3.35;;;43.20;28.80;;;;;;5011377;28;20412;-76
2021/06/12 10:40:44;;;;;;;3.58;3.28;;;43.30;28.40;;;;;;4993745;28;20104;-74
2021/06/12 10:43:20;;;;;;;;;;;41.90;29.60;;;;;;5011651;28;20022;-75
2021/06/12 10:46:08;;;;;;;4.18;3.53;;;41.40;29.70;;;;;;5011246;28;19996;-75
2021/06/12 10:48:40;;;;;;;3.28;2.97;;;40.40;30.80;;;;;;4993429;28;20025;-75
2021/06/12 10:51:10;;;;;;;3.90;3.50;;;40.40;31.30;;;;;;5011077;28;20022;-75
2021/06/12 10:53:37;;;;;;;4.72;3.78;;;40.50;31.30;;;;;;4993547;28;20075;-75
2021/06/12 10:56:08;;;;;;;4.28;3.15;;;40.10;30.40;;;;;;4993566;28;20383;-75
2021/06/12 10:58:34;;;;;;;6.57;2.90;;;39.90;30.90;;;;;;5011004;28;20022;-75
2021/06/12 11:01:06;;;;;;;4.05;3.67;;;40.10;30.60;;;;;;5011175;28;20029;-75
2021/06/12 11:03:41;;;;;;;;;;;40.40;30.90;;;;;;5011378;28;20026;-75
2021/06/12 11:06:37;;;;;;;5.30;3.50;;;40.20;31.30;;;;;;5010757;28;19905;-76
2021/06/12 11:09:14;;;;;;;4.88;3.65;;;41.00;31.00;;;;;;5010976;28;20026;-76
2021/06/12 11:11:42;;;;;;;3.72;3.42;;;40.50;30.40;;;;;;5010542;28;20026;-75
2021/06/12 11:14:22;;;;;;;4.30;3.50;;;40.20;31.30;;;;;;5010519;28;20026;-74
2021/06/12 11:17:09;;;;;;;3.33;3.03;;;41.10;30.70;;;;;;5010415;28;20065;-75
2021/06/12 11:20:10;;;;;;;5.50;3.97;;;41.80;29.20;;;;;;4992772;28;20404;-75
2021/06/12 11:22:53;;;;;;;4.82;4.38;;;40.20;31.20;;;;;;4992712;28;20466;-75
2021/06/12 11:25:19;;;;;;;3.97;3.50;;;38.50;33.20;;;;;;5010393;28;20109;-75
2021/06/12 11:27:49;;;;;;;3.97;3.42;;;37.20;34.30;;;;;;4992868;28;20046;-75
2021/06/12 11:30:23;;;;;;;4.57;3.80;;;35.90;35.90;;;;;;5009938;28;20018;-75
2021/06/12 11:33:08;;;;;;;3.92;3.63;;;34.90;37.80;;;;;;5010386;28;20026;-75
2021/06/12 11:35:52;;;;;;;4.50;4.10;;;34.60;38.40;;;;;;5010579;28;20105;-75
2021/06/12 11:38:30;;;;;;;4.65;3.67;;;34.30;38.60;;;;;;5010508;28;20022;-75
2021/06/12 11:40:57;;;;;;;6.22;3.60;;;34.60;38.00;;;;;;5010541;28;20079;-75
2021/06/12 11:43:35;;;;;;;6.28;3.95;;;34.20;38.80;;;;;;5010317;28;20034;-73
2021/06/12 11:46:34;;;;;;;4.57;3.75;;;35.10;37.80;;;;;;4992651;28;20033;-74
2021/06/12 11:49:03;;;;;;;3.55;3.25;;;37.60;34.70;;;;;;5005673;28;20045;-73
2021/06/12 11:51:34;;;;;;;3.85;3.30;;;37.30;34.30;;;;;;5010024;28;20029;-73
2021/06/12 11:54:16;;;;;;;3.83;3.42;;;37.80;34.10;;;;;;5010360;28;20049;-74
2021/06/12 11:56:50;;;;;;;4.63;3.05;;;38.10;32.90;;;;;;5010031;28;20021;-74
2021/06/12 11:59:21;;;;;;;5.32;3.97;;;37.70;33.90;;;;;;4992400;28;20026;-74
2021/06/12 12:01:58;;;;;;;4.55;3.35;;;38.10;33.20;;;;;;5009850;28;20104;-74
2021/06/12 12:04:31;;;;;;;4.10;3.70;;;38.40;32.20;;;;;;5010273;28;20100;-74
2021/06/12 12:06:57;;;;;;;4.47;3.78;;;37.90;32.80;;;;;;5009750;28;20025;-74
2021/06/12 12:09:29;;;;;;;4.63;4.13;;;37.20;34.40;;;;;;4992219;28;20033;-74
2021/06/12 12:12:03;;;;;;;4.55;3.95;;;36.90;34.10;;;;;;5009963;28;20068;-74
2021/06/12 12:14:36;;;;;;;5.20;3.83;;;37.10;34.00;;;;;;5010236;28;20106;-74
2021/06/12 12:17:05;;;;;;;5.60;3.92;;;37.20;34.40;;;;;;5009645;28;20026;-74
2021/06/12 12:19:31;;;;;;;4.65;4.18;;;37.80;33.80;;;;;;5009848;28;20036;-75
2021/06/12 12:22:02;;;;;;;5.57;4.70;;;38.40;33.40;;;;;;5009931;28;20030;-75
2021/06/12 12:24:31;;;;;;;3.90;3.45;;;38.60;32.30;;;;;;4991959;28;20037;-74
2021/06/12 12:27:06;;;;;;;3.70;3.30;;;38.20;32.50;;;;;;4991948;28;20422;-74
2021/06/12 12:29:34;;;;;;;4.78;3.50;;;37.90;32.90;;;;;;5008346;28;20029;-74
2021/06/12 12:32:01;;;;;;;4.63;3.00;;;36.90;33.90;;;;;;4991808;28;20057;-74
2021/06/12 12:34:28;;;;;;;5.35;2.92;;;37.10;34.40;;;;;;5009481;28;20057;-74
2021/06/12 12:36:55;;;;;;;3.10;2.80;;;38.10;32.70;;;;;;5009343;28;20061;-74
2021/06/12 12:39:20;;;;;;;3.08;2.67;;;39.50;31.40;;;;;;5009373;28;20474;-74
2021/06/12 12:41:57;;;;;;;5.15;2.90;;;40.20;30.40;;;;;;4992058;28;20080;-74
2021/06/12 12:44:25;;;;;;;5.82;2.78;;;40.40;29.30;;;;;;5013836;28;20037;-73
2021/06/12 12:46:52;;;;;;;5.43;2.85;;;40.50;29.70;;;;;;4995816;28;20026;-74
2021/06/12 12:49:21;;;;;;;4.88;3.20;;;40.00;30.10;;;;;;5013332;28;20034;-75